createdAt,value
2023-02-14T00:00:41.515Z,0.36
2023-02-14T00:01:41.500Z,0.36
2023-02-14T00:02:41.553Z,0.32
2023-02-14T00:03:41.508Z,0.36
2023-02-14T00:04:41.612Z,0.29
2023-02-14T00:05:41.477Z,0.32
2023-02-14T00:06:41.473Z,0.32
2023-02-14T00:07:41.462Z,0.32
2023-02-14T00:08:41.446Z,0.16
2023-02-14T00:09:41.443Z,0.15
2023-02-14T00:10:41.433Z,0.08
2023-02-14T00:11:42.215Z,0.19
2023-02-14T00:12:41.425Z,0.15
2023-02-14T00:13:41.410Z,0.05
2023-02-14T00:14:42.216Z,0.07
2023-02-14T00:15:41.424Z,0.11
2023-02-14T00:16:41.408Z,0.07
2023-02-14T00:17:41.384Z,0.07
2023-02-14T00:18:41.403Z,0.15
2023-02-14T00:19:41.386Z,0.16
2023-02-14T00:20:41.353Z,0.18
2023-02-14T00:21:41.353Z,0.10
2023-02-14T00:22:44.301Z,0.11
2023-02-14T00:23:41.344Z,0.31
2023-02-14T00:25:24.450Z,0.16
2023-02-14T00:26:24.448Z,0.12
2023-02-14T00:27:24.438Z,0.19
2023-02-14T00:28:24.422Z,0.22
2023-02-14T00:29:24.429Z,0.11
2023-02-14T00:30:24.593Z,0.04
2023-02-14T00:31:24.516Z,0.08
2023-02-14T00:32:25.507Z,0.15
2023-02-14T00:33:25.491Z,0.18
2023-02-14T00:34:25.485Z,0.11
2023-02-14T00:35:25.467Z,0.16
2023-02-14T00:36:25.453Z,0.19
2023-02-14T00:37:25.455Z,0.10
2023-02-14T00:38:25.448Z,0.10
2023-02-14T00:39:25.434Z,0.08
2023-02-14T00:40:25.440Z,0.05
2023-02-14T00:41:25.413Z,0.00
2023-02-14T00:42:25.403Z,-0.03
2023-02-14T00:43:25.433Z,0.10
2023-02-14T00:44:25.392Z,0.05
2023-02-14T00:45:25.455Z,0.04
2023-02-14T00:46:25.375Z,0.04
2023-02-14T00:47:25.400Z,0.00
2023-02-14T00:48:25.367Z,-0.06
2023-02-14T21:24:33.050Z,0.76
2023-02-14T21:25:33.030Z,0.77
2023-02-14T21:26:33.034Z,0.63
2023-02-14T21:27:33.013Z,0.63
2023-02-14T21:28:34.100Z,0.83
2023-02-14T21:29:34.100Z,0.83
2023-02-14T21:30:34.086Z,0.78
2023-02-14T21:31:34.150Z,0.88
2023-02-14T21:32:34.078Z,0.98
2023-02-14T21:33:34.820Z,0.84
2023-02-14T21:34:34.046Z,0.84
2023-02-14T21:35:34.043Z,0.92
2023-02-14T21:36:34.045Z,0.95
2023-02-14T21:37:34.052Z,0.94
2023-02-14T21:38:34.022Z,0.98
2023-02-14T21:39:35.020Z,0.96
2023-02-14T21:40:34.010Z,1.01
2023-02-14T21:41:34.006Z,0.98
2023-02-14T21:42:33.998Z,0.99
2023-02-14T21:43:34.024Z,0.99
2023-02-14T21:44:33.975Z,0.91
2023-02-14T21:45:34.010Z,1.02
2023-02-14T21:46:34.036Z,0.94
2023-02-14T21:47:33.954Z,0.95
2023-02-14T21:48:33.942Z,0.81
2023-02-14T21:49:33.935Z,0.98
2023-02-14T21:50:34.126Z,0.86
2023-02-14T21:51:34.923Z,0.87
2023-02-14T21:52:33.915Z,0.84
2023-02-14T21:53:33.942Z,0.88
2023-02-14T21:54:33.897Z,0.92
2023-02-14T21:55:33.885Z,0.96
2023-02-14T21:56:33.882Z,1.06
2023-02-14T21:57:33.874Z,1.06
2023-02-14T21:58:33.872Z,1.12
2023-02-14T21:59:33.866Z,1.12
2023-02-14T22:00:33.849Z,1.10
2023-02-14T22:01:33.868Z,1.19
2023-02-14T22:02:33.857Z,1.14
2023-02-14T22:03:33.829Z,1.12
2023-02-14T22:04:33.848Z,1.13
2023-02-14T22:05:33.811Z,1.05
2023-02-14T22:06:33.809Z,1.02
2023-02-14T22:07:33.794Z,1.10
2023-02-14T22:08:33.815Z,1.13
2023-02-14T22:09:33.796Z,1.14
2023-02-14T22:10:33.813Z,1.12
2023-02-14T22:11:34.416Z,1.12
2023-02-14T22:12:33.754Z,1.08
2023-02-14T22:13:33.762Z,1.14
2023-02-14T22:14:33.779Z,1.19
2023-02-14T22:15:33.726Z,1.23
2023-02-14T22:16:33.728Z,1.20
2023-02-14T22:17:33.721Z,1.23
2023-02-14T22:18:33.715Z,1.22
2023-02-14T22:19:33.704Z,1.14
2023-02-14T22:20:33.687Z,1.19
2023-02-14T22:21:33.689Z,1.20
2023-02-14T22:22:33.686Z,1.17
2023-02-14T22:23:34.060Z,1.16
2023-02-14T22:25:40.456Z,1.10
2023-02-14T22:26:40.514Z,0.95
2023-02-14T22:27:40.489Z,0.88
2023-02-14T22:28:40.440Z,0.92
2023-02-14T22:29:40.453Z,0.98
2023-02-14T22:30:40.420Z,0.99
2023-02-14T22:31:40.582Z,0.87
2023-02-14T22:32:40.407Z,0.86
2023-02-14T22:33:42.326Z,0.99
2023-02-14T22:34:40.385Z,0.86
2023-02-14T22:35:40.405Z,0.91
2023-02-14T22:36:40.375Z,0.95
2023-02-14T22:37:40.378Z,0.84
2023-02-14T22:38:40.371Z,0.98
2023-02-14T22:39:40.373Z,1.01
2023-02-14T22:40:40.342Z,0.98
2023-02-14T22:41:40.338Z,0.95
2023-02-14T22:42:40.330Z,0.99
2023-02-14T22:43:40.330Z,1.12
2023-02-14T22:44:40.309Z,1.10
2023-02-14T22:45:40.298Z,1.10
2023-02-14T22:46:40.340Z,1.12
2023-02-14T22:47:40.290Z,1.17
2023-02-14T22:48:40.310Z,1.16
2023-02-14T22:49:40.268Z,1.08
2023-02-14T22:50:40.272Z,1.19
2023-02-14T22:51:41.413Z,1.14
2023-02-14T22:52:41.334Z,1.04
2023-02-14T22:53:41.332Z,1.01
2023-02-14T22:54:41.320Z,1.04
2023-02-14T22:55:41.318Z,1.01
2023-02-14T22:56:41.341Z,1.06
2023-02-14T22:57:41.300Z,1.02
2023-02-14T22:58:41.834Z,1.10
2023-02-14T22:59:41.294Z,1.10
2023-02-14T23:00:41.309Z,1.08
2023-02-14T23:01:41.362Z,1.12
2023-02-14T23:02:41.314Z,1.12
2023-02-14T23:03:41.262Z,1.19
2023-02-14T23:04:41.322Z,1.10
2023-02-14T23:05:41.232Z,1.14
2023-02-14T23:06:41.223Z,1.02
2023-02-14T23:07:41.212Z,0.92
2023-02-14T23:08:41.965Z,0.92
2023-02-14T23:09:41.237Z,1.02
2023-02-14T23:10:41.190Z,0.91
2023-02-14T23:11:41.191Z,0.92
2023-02-14T23:12:41.177Z,0.99
2023-02-14T23:13:41.161Z,1.05
2023-02-14T23:14:41.167Z,1.02
2023-02-14T23:15:41.158Z,0.88
2023-02-14T23:16:41.136Z,0.98
2023-02-14T23:17:41.128Z,1.01
2023-02-14T23:18:41.126Z,1.08
2023-02-14T23:19:41.124Z,0.96
2023-02-14T23:20:41.106Z,0.98
2023-02-14T23:21:41.102Z,1.04
2023-02-14T23:22:41.159Z,1.06
2023-02-14T23:23:41.081Z,1.06
2023-02-14T23:24:41.082Z,1.05
2023-02-14T23:25:41.068Z,1.05
2023-02-14T23:26:41.069Z,1.08
2023-02-14T23:27:41.057Z,0.96
2023-02-14T23:28:41.090Z,1.06
2023-02-14T23:29:41.043Z,1.08
2023-02-14T23:30:41.158Z,1.10
2023-02-14T23:31:41.195Z,1.08
2023-02-14T23:32:41.020Z,1.10
2023-02-14T23:33:41.024Z,0.96
2023-02-14T23:34:41.004Z,1.06
2023-02-14T23:35:41.011Z,1.10
2023-02-14T23:36:40.994Z,1.10
2023-02-14T23:37:41.995Z,1.14
2023-02-14T23:38:40.968Z,1.02
2023-02-14T23:39:40.965Z,0.86
2023-02-14T23:40:41.914Z,0.78
2023-02-14T23:41:40.942Z,0.84
2023-02-14T23:42:41.021Z,0.87
2023-02-14T23:43:40.947Z,0.88
2023-02-14T23:44:41.924Z,0.87
2023-02-14T23:45:40.939Z,0.94
2023-02-14T23:46:41.909Z,0.86
2023-02-14T23:47:40.903Z,0.96
2023-02-14T23:48:40.903Z,0.95
2023-02-14T23:49:40.885Z,0.94
2023-02-14T23:50:40.877Z,0.86
2023-02-14T23:51:40.883Z,0.86
2023-02-14T23:52:40.863Z,0.95
2023-02-14T23:53:40.858Z,1.01
2023-02-14T23:54:40.848Z,0.96
2023-02-14T23:55:40.838Z,0.95
2023-02-14T23:56:40.836Z,0.95
2023-02-14T23:57:40.824Z,0.83
2023-02-14T23:58:43.114Z,0.84
2023-02-14T23:59:40.813Z,0.87
